createdAt,value
2018-06-24T00:00:18.486Z,1.87
2018-06-24T00:05:21.580Z,1.80
2018-06-24T00:10:24.678Z,2.03
2018-06-24T00:15:27.765Z,1.83
2018-06-24T00:20:30.879Z,1.80
2018-06-24T00:25:33.994Z,1.83
2018-06-24T00:30:37.125Z,2.00
2018-06-24T00:35:40.233Z,1.70
2018-06-24T00:40:43.363Z,1.90
2018-06-24T00:45:46.432Z,1.80
2018-06-24T00:50:49.538Z,1.93
2018-06-24T00:55:52.612Z,2.00
2018-06-24T01:00:55.729Z,1.70
2018-06-24T01:05:58.824Z,2.00
2018-06-24T01:11:01.941Z,1.50
2018-06-24T01:16:05.053Z,2.17
2018-06-24T01:21:08.191Z,1.90
2018-06-24T01:26:11.320Z,1.70
2018-06-24T01:31:14.480Z,1.93
2018-06-24T01:36:17.577Z,2.07
2018-06-24T01:41:20.687Z,2.00
2018-06-24T01:46:24.235Z,1.80
2018-06-24T01:51:27.347Z,2.73
2018-06-24T01:56:30.475Z,2.23
2018-06-24T02:01:33.637Z,2.20
2018-06-24T02:06:36.763Z,2.13
2018-06-24T02:11:39.898Z,2.10
2018-06-24T02:16:43.001Z,1.97
2018-06-24T02:21:46.133Z,2.27
2018-06-24T02:26:49.596Z,1.90
2018-06-24T02:31:52.705Z,2.20
2018-06-24T02:36:55.780Z,1.93
2018-06-24T02:41:58.895Z,1.83
2018-06-24T02:47:02.024Z,1.73
2018-06-24T02:52:05.128Z,1.83
2018-06-24T02:57:08.225Z,2.30
2018-06-24T03:02:11.313Z,2.00
2018-06-24T03:07:14.422Z,2.10
2018-06-24T03:12:17.552Z,1.50
2018-06-24T03:17:20.676Z,1.80
2018-06-24T03:22:23.761Z,1.67
2018-06-24T03:27:26.885Z,1.73
2018-06-24T03:32:30.004Z,1.87
2018-06-24T03:37:33.179Z,1.87
2018-06-24T03:42:36.291Z,1.97
2018-06-24T03:47:39.404Z,1.93
2018-06-24T03:52:42.524Z,1.80
2018-06-24T03:57:45.640Z,2.00
2018-06-24T04:02:48.735Z,1.90
2018-06-24T04:07:51.836Z,2.10
2018-06-24T04:12:54.936Z,2.00
2018-06-24T04:17:58.061Z,2.00
2018-06-24T04:23:01.163Z,1.80
2018-06-24T04:28:04.468Z,2.00
2018-06-24T04:33:07.601Z,2.20
2018-06-24T04:38:10.697Z,2.00
2018-06-24T04:43:13.773Z,2.47
2018-06-24T04:48:16.888Z,2.20
2018-06-24T04:53:19.983Z,2.10
2018-06-24T04:58:23.143Z,2.20
2018-06-24T05:03:26.297Z,2.30
2018-06-24T05:08:29.392Z,2.37
2018-06-24T05:13:32.495Z,2.57
2018-06-24T05:18:35.626Z,2.50
2018-06-24T05:23:38.716Z,2.90
2018-06-24T05:28:41.868Z,3.13
2018-06-24T05:33:45.275Z,3.03
2018-06-24T05:38:48.395Z,3.47
2018-06-24T05:43:51.562Z,3.53
2018-06-24T05:48:54.792Z,4.13
2018-06-24T05:53:57.950Z,3.50
2018-06-24T05:59:01.042Z,3.73
2018-06-24T06:04:04.217Z,3.30
2018-06-24T06:09:08.371Z,3.30
2018-06-24T06:14:11.486Z,3.80
2018-06-24T06:19:14.588Z,3.37
2018-06-24T06:24:17.698Z,3.80
2018-06-24T06:29:20.835Z,3.70
2018-06-24T06:34:23.949Z,3.60
2018-06-24T06:39:27.066Z,3.33
2018-06-24T06:44:30.145Z,3.67
2018-06-24T06:49:33.310Z,3.70
2018-06-24T06:54:36.792Z,3.57
2018-06-24T06:59:40.915Z,3.63
2018-06-24T07:04:44.031Z,4.07
2018-06-24T07:09:47.179Z,3.93
2018-06-24T07:14:50.300Z,4.03
2018-06-24T07:19:53.450Z,3.67
2018-06-24T07:24:56.590Z,3.60
2018-06-24T07:29:59.755Z,3.80
2018-06-24T07:35:02.894Z,4.27
2018-06-24T07:40:06.101Z,2.87
2018-06-24T07:50:21.640Z,3.60
2018-06-24T07:55:24.718Z,3.83
2018-06-24T08:00:27.867Z,4.10
2018-06-24T08:05:31.026Z,4.00
2018-06-24T08:10:34.149Z,4.03
2018-06-24T08:15:37.253Z,4.57
2018-06-24T08:20:40.388Z,3.73
2018-06-24T08:25:43.536Z,5.30
2018-06-24T08:30:46.740Z,4.33
2018-06-24T08:35:49.908Z,4.17
2018-06-24T08:40:53.023Z,4.23
2018-06-24T08:45:56.204Z,5.57
2018-06-24T08:50:59.359Z,4.67
2018-06-24T08:56:02.951Z,4.80
2018-06-24T09:01:06.103Z,4.43
2018-06-24T09:06:09.260Z,4.17
2018-06-24T09:11:12.553Z,4.13
2018-06-24T09:16:15.704Z,4.87
2018-06-24T09:21:18.811Z,5.97
2018-06-24T09:26:22.893Z,4.67
2018-06-24T09:31:26.089Z,4.43
2018-06-24T09:36:29.197Z,4.43
2018-06-24T09:41:32.291Z,4.77
2018-06-24T09:46:36.474Z,4.67
2018-06-24T09:51:39.560Z,4.33
2018-06-24T09:56:42.655Z,3.90
2018-06-24T10:01:45.746Z,3.87
2018-06-24T10:06:48.960Z,3.47
2018-06-24T10:11:52.055Z,3.50
2018-06-24T10:16:55.156Z,3.73
2018-06-24T10:21:58.269Z,3.50
2018-06-24T10:27:01.432Z,3.20
2018-06-24T10:32:04.747Z,3.63
2018-06-24T10:37:07.900Z,3.70
2018-06-24T10:42:10.994Z,3.90
2018-06-24T10:47:14.084Z,3.60
2018-06-24T10:52:17.171Z,2.80
2018-06-24T10:57:20.274Z,3.00
2018-06-24T11:02:23.387Z,2.87
2018-06-24T11:07:26.482Z,2.57
2018-06-24T11:12:29.576Z,2.47
2018-06-24T11:17:32.660Z,2.13
2018-06-24T11:22:35.795Z,2.00
2018-06-24T11:27:38.904Z,2.13
2018-06-24T11:32:42.001Z,1.90
2018-06-24T11:37:45.099Z,2.17
2018-06-24T11:42:48.213Z,1.93
2018-06-24T11:47:51.290Z,1.97
2018-06-24T11:52:54.366Z,2.20
2018-06-24T11:57:57.479Z,2.00
2018-06-24T12:03:00.584Z,2.33
2018-06-24T12:08:03.678Z,2.17
2018-06-24T12:13:06.799Z,2.83
2018-06-24T12:18:09.939Z,1.90
2018-06-24T12:23:13.044Z,2.13
2018-06-24T12:28:16.164Z,2.10
2018-06-24T12:33:19.292Z,2.03
2018-06-24T12:38:22.391Z,2.20
2018-06-24T12:43:25.541Z,1.90
2018-06-24T12:48:28.607Z,1.53
2018-06-24T12:53:31.717Z,1.90
2018-06-24T12:58:34.934Z,1.50
2018-06-24T13:03:38.044Z,1.80
2018-06-24T13:08:41.117Z,1.80
2018-06-24T13:13:47.684Z,1.70
2018-06-24T13:18:50.786Z,1.83
2018-06-24T13:23:53.885Z,2.00
2018-06-24T13:28:57.020Z,1.43
2018-06-24T13:34:00.154Z,2.00
2018-06-24T13:39:04.023Z,1.50
2018-06-24T13:44:07.797Z,1.93
2018-06-24T13:49:10.938Z,1.50
2018-06-24T13:54:14.395Z,2.10
2018-06-24T13:59:17.585Z,1.73
2018-06-24T14:04:20.814Z,1.60
2018-06-24T14:09:23.946Z,1.60
2018-06-24T14:14:27.067Z,1.60
2018-06-24T14:19:30.223Z,1.63
2018-06-24T14:24:33.338Z,1.67
2018-06-24T14:29:36.498Z,1.40
2018-06-24T14:34:39.636Z,1.60
2018-06-24T14:39:42.820Z,1.33
2018-06-24T14:44:45.971Z,1.97
2018-06-24T14:49:49.214Z,1.67
2018-06-24T14:54:52.338Z,1.70
2018-06-24T14:59:55.532Z,1.50
2018-06-24T15:04:58.698Z,1.80
2018-06-24T15:10:01.851Z,1.80
2018-06-24T15:15:05.038Z,2.23
2018-06-24T15:20:08.211Z,1.60
2018-06-24T15:25:11.327Z,1.70
2018-06-24T15:30:14.487Z,1.73
2018-06-24T15:35:18.339Z,2.30
2018-06-24T15:40:21.505Z,1.70
2018-06-24T15:45:24.632Z,1.80
2018-06-24T15:50:27.771Z,1.87
2018-06-24T15:55:30.928Z,1.47
2018-06-24T16:00:34.059Z,1.00
2018-06-24T16:05:37.206Z,1.20
2018-06-24T16:10:40.342Z,1.40
2018-06-24T16:15:43.424Z,1.27
2018-06-24T16:20:46.619Z,1.20
2018-06-24T16:25:49.672Z,1.03
2018-06-24T16:30:52.832Z,1.50
2018-06-24T16:35:55.950Z,1.30
2018-06-24T16:40:59.061Z,1.40
2018-06-24T16:46:02.141Z,1.40
2018-06-24T16:51:05.256Z,1.40
2018-06-24T16:56:08.366Z,1.33
2018-06-24T17:01:11.496Z,1.50
2018-06-24T17:06:14.657Z,1.33
2018-06-24T17:11:17.761Z,1.47
2018-06-24T17:16:20.886Z,1.20
2018-06-24T17:21:23.992Z,1.20
2018-06-24T17:26:27.134Z,1.13
2018-06-24T17:31:30.243Z,1.27
2018-06-24T17:36:33.382Z,1.40
2018-06-24T17:41:36.560Z,1.40
2018-06-24T17:46:39.670Z,1.43
2018-06-24T17:51:42.822Z,1.43
2018-06-24T17:56:45.963Z,1.60
2018-06-24T18:01:49.062Z,1.60
2018-06-24T18:06:52.262Z,1.60
2018-06-24T18:11:55.367Z,1.90
2018-06-24T18:16:58.445Z,1.50
2018-06-24T18:22:01.603Z,1.40
2018-06-24T18:27:05.186Z,1.57
2018-06-24T18:32:08.290Z,1.60
2018-06-24T18:37:11.427Z,1.57
2018-06-24T18:47:35.215Z,1.30
2018-06-24T18:52:38.324Z,1.40
2018-06-24T18:57:41.386Z,1.30
2018-06-24T19:02:44.549Z,1.30
2018-06-24T19:07:47.617Z,1.33
2018-06-24T19:12:50.711Z,1.10
2018-06-24T19:17:53.911Z,1.00
2018-06-24T19:22:57.001Z,1.10
2018-06-24T19:28:00.112Z,1.37
2018-06-24T19:33:03.199Z,0.97
2018-06-24T19:38:06.287Z,1.00
2018-06-24T19:43:09.378Z,1.20
2018-06-24T19:48:12.464Z,1.33
2018-06-24T19:53:15.581Z,1.00
2018-06-24T19:58:18.673Z,1.00
2018-06-24T20:03:21.762Z,0.97
2018-06-24T20:08:24.846Z,1.10
2018-06-24T20:13:27.935Z,1.10
2018-06-24T20:18:31.042Z,1.00
2018-06-24T20:23:34.150Z,1.13
2018-06-24T20:28:37.345Z,1.17
2018-06-24T20:33:40.478Z,1.10
2018-06-24T20:38:43.565Z,1.20
2018-06-24T20:43:46.633Z,1.20
2018-06-24T20:48:49.755Z,1.30
2018-06-24T20:53:52.832Z,1.30
2018-06-24T20:58:55.941Z,1.20
2018-06-24T21:03:59.178Z,1.30
2018-06-24T21:09:02.222Z,1.20
2018-06-24T21:14:05.342Z,1.27
2018-06-24T21:19:08.445Z,1.20
2018-06-24T21:24:11.531Z,1.40
2018-06-24T21:29:14.642Z,1.07
2018-06-24T21:34:17.743Z,1.10
2018-06-24T21:39:20.823Z,1.00
2018-06-24T21:44:23.967Z,1.33
2018-06-24T21:49:27.101Z,1.20
2018-06-24T21:54:30.171Z,1.27
2018-06-24T21:59:33.299Z,1.33
2018-06-24T22:04:36.471Z,1.20
2018-06-24T22:09:39.570Z,1.30
2018-06-24T22:14:42.741Z,1.10
2018-06-24T22:19:45.850Z,1.10
2018-06-24T22:24:48.938Z,1.07
2018-06-24T22:29:52.059Z,0.90
2018-06-24T22:34:55.175Z,0.80
2018-06-24T22:39:58.264Z,0.93
2018-06-24T22:45:01.339Z,1.00
2018-06-24T22:50:04.434Z,0.97
2018-06-24T22:55:07.579Z,0.87
2018-06-24T23:00:12.473Z,0.90
2018-06-24T23:05:15.567Z,0.93
2018-06-24T23:10:18.666Z,1.00
2018-06-24T23:15:21.780Z,1.00
2018-06-24T23:20:24.864Z,1.00
2018-06-24T23:25:28.007Z,1.00
2018-06-24T23:30:31.161Z,1.13
2018-06-24T23:35:34.252Z,1.20
2018-06-24T23:40:37.330Z,1.50
2018-06-24T23:45:40.543Z,1.50
2018-06-24T23:50:43.630Z,1.20
2018-06-24T23:55:46.719Z,1.30
